createdAt,value
2023-01-23T00:01:49.726Z,102968.81
2023-01-23T00:04:15.784Z,102974.34
2023-01-23T00:06:42.148Z,102974.34
2023-01-23T00:09:08.127Z,102967.97
2023-01-23T00:11:34.136Z,102971.78
2023-01-23T00:14:01.095Z,102969.88
2023-01-23T00:16:29.011Z,102973.50
2023-01-23T00:18:55.135Z,102973.50
2023-01-23T00:21:24.160Z,102968.81
2023-01-23T00:23:52.988Z,102968.81
2023-01-23T00:26:21.587Z,102967.13
2023-01-23T00:28:47.378Z,102970.75
2023-01-23T00:31:15.481Z,102974.34
2023-01-23T00:33:42.876Z,102967.97
2023-01-23T00:36:09.434Z,102967.13
2023-01-23T00:38:35.404Z,102963.31
2023-01-23T00:41:01.536Z,102961.59
2023-01-23T00:43:27.371Z,102954.22
2023-01-23T00:45:53.095Z,102964.34
2023-01-23T00:48:18.735Z,102969.03
2023-01-23T00:50:44.412Z,102962.69
2023-01-23T00:53:10.044Z,102961.59
2023-01-23T00:55:35.696Z,102959.72
2023-01-23T00:58:01.334Z,102969.88
2023-01-23T01:00:27.012Z,102960.56
2023-01-23T01:02:52.697Z,102967.13
2023-01-23T01:05:18.368Z,102969.03
2023-01-23T01:07:44.704Z,102978.13
2023-01-23T01:10:11.087Z,102972.63
2023-01-23T01:12:37.115Z,102974.34
2023-01-23T01:15:03.387Z,102980.91
2023-01-23T01:17:29.055Z,102981.75
2023-01-23T01:19:54.732Z,102986.41
2023-01-23T01:22:20.420Z,102991.91
2023-01-23T01:24:46.075Z,102990.03
2023-01-23T01:27:11.743Z,102987.47
2023-01-23T01:29:37.403Z,102998.31
2023-01-23T01:32:03.286Z,102995.75
2023-01-23T01:34:29.112Z,102994.69
2023-01-23T01:36:54.775Z,102995.56
2023-01-23T01:39:20.404Z,102985.56
2023-01-23T01:41:46.052Z,102990.22
2023-01-23T01:44:21.405Z,102988.31
2023-01-23T01:46:48.257Z,102995.56
2023-01-23T01:49:19.667Z,102988.31
2023-01-23T01:51:50.472Z,102986.41
2023-01-23T01:54:27.773Z,102985.56
2023-01-23T01:57:05.077Z,102992.16
2023-01-23T01:59:34.519Z,102998.50
2023-01-23T02:02:05.901Z,103004.84
2023-01-23T02:04:33.297Z,102999.16
2023-01-23T02:07:03.128Z,102996.59
2023-01-23T02:09:32.575Z,103002.94
2023-01-23T02:11:59.363Z,103000.19
2023-01-23T02:14:25.131Z,103004.00
2023-01-23T02:16:52.059Z,103005.69
2023-01-23T02:19:57.111Z,103014.84
2023-01-23T02:22:32.329Z,103015.03
2023-01-23T02:25:05.516Z,103011.44
2023-01-23T02:27:31.166Z,103010.38
2023-01-23T02:29:57.685Z,103016.97
2023-01-23T02:32:24.434Z,103017.78
2023-01-23T02:34:52.193Z,103012.28
2023-01-23T02:37:18.752Z,103015.88
2023-01-23T02:39:44.807Z,103015.88
2023-01-23T02:42:10.771Z,103010.38
2023-01-23T02:44:36.429Z,103005.94
2023-01-23T02:47:07.006Z,102999.34
2023-01-23T02:49:33.120Z,102995.75
2023-01-23T02:51:59.099Z,102990.22
2023-01-23T02:54:25.292Z,102980.91
2023-01-23T02:56:51.045Z,102980.91
2023-01-23T02:59:36.670Z,102973.69
2023-01-23T03:02:04.607Z,102970.94
2023-01-23T03:04:30.265Z,102973.69
2023-01-23T03:06:55.918Z,102979.22
2023-01-23T03:09:22.018Z,102968.19
2023-01-23T03:11:47.758Z,102971.78
2023-01-23T03:14:15.771Z,102975.38
2023-01-23T03:16:42.077Z,102976.47
2023-01-23T03:19:09.277Z,102981.97
2023-01-23T03:21:36.955Z,102986.41
2023-01-23T03:24:04.636Z,102981.75
2023-01-23T03:26:30.554Z,102991.06
2023-01-23T03:29:16.197Z,102992.78
2023-01-23T03:31:41.881Z,103000.41
2023-01-23T03:34:07.619Z,102995.75
2023-01-23T03:36:36.479Z,102998.50
2023-01-23T03:39:24.163Z,103006.78
2023-01-23T03:41:50.569Z,103012.09
2023-01-23T03:44:18.160Z,103001.25
2023-01-23T03:46:45.078Z,103016.72
2023-01-23T03:49:10.717Z,103007.84
2023-01-23T03:51:36.411Z,103016.97
2023-01-23T03:54:02.060Z,103011.44
2023-01-23T03:56:27.719Z,103024.16
2023-01-23T03:58:53.454Z,103032.41
2023-01-23T04:01:19.254Z,103034.34
2023-01-23T04:03:44.908Z,103029.06
2023-01-23T04:06:10.671Z,103018.63
2023-01-23T04:08:36.314Z,103026.06
2023-01-23T04:11:05.254Z,103025.22
2023-01-23T04:13:31.300Z,103019.72
2023-01-23T04:15:56.952Z,103014.19
2023-01-23T04:18:22.605Z,103017.78
2023-01-23T04:20:48.266Z,103020.56
2023-01-23T04:23:13.900Z,103035.19
2023-01-23T04:25:39.564Z,103030.50
2023-01-23T04:28:05.195Z,103027.75
2023-01-23T04:30:30.966Z,103030.72
2023-01-23T04:32:56.652Z,103031.56
2023-01-23T04:35:22.318Z,103032.41
2023-01-23T04:37:47.980Z,103033.25
2023-01-23T04:40:14.300Z,103015.03
2023-01-23T04:42:41.157Z,103021.63
2023-01-23T04:45:08.140Z,103022.22
2023-01-23T04:47:33.920Z,103021.41
2023-01-23T04:49:59.713Z,103021.41
2023-01-23T04:52:25.392Z,103020.56
2023-01-23T04:54:51.043Z,103015.03
2023-01-23T04:57:16.700Z,103015.03
2023-01-23T04:59:42.340Z,103014.19
2023-01-23T05:02:08.836Z,103013.13
2023-01-23T05:04:34.509Z,103009.53
2023-01-23T05:07:00.186Z,103009.53
2023-01-23T05:09:25.825Z,103005.94
2023-01-23T05:11:51.471Z,102998.50
2023-01-23T05:14:17.316Z,103006.78
2023-01-23T05:16:42.976Z,103012.28
2023-01-23T05:19:08.638Z,103027.75
2023-01-23T05:21:34.317Z,103031.56
2023-01-23T05:23:59.948Z,103033.50
2023-01-23T05:26:25.663Z,103037.94
2023-01-23T05:28:51.371Z,103039.00
2023-01-23T05:31:17.168Z,103037.94
2023-01-23T05:33:42.889Z,103030.72
2023-01-23T05:36:08.624Z,103040.69
2023-01-23T05:38:34.559Z,103045.34
2023-01-23T05:41:00.186Z,103050.88
2023-01-23T05:43:25.828Z,103055.53
2023-01-23T05:45:51.506Z,103054.47
2023-01-23T05:48:17.185Z,103059.13
2023-01-23T05:50:42.830Z,103056.38
2023-01-23T05:53:08.490Z,103059.13
2023-01-23T05:55:34.128Z,103054.47
2023-01-23T05:57:59.780Z,103059.13
2023-01-23T06:00:25.555Z,103045.59
2023-01-23T06:02:51.232Z,103050.03
2023-01-23T06:05:16.954Z,103047.28
2023-01-23T06:07:42.612Z,103046.44
2023-01-23T06:10:09.930Z,103053.63
2023-01-23T06:12:35.717Z,103051.94
2023-01-23T06:15:01.384Z,103054.88
2023-01-23T06:17:27.047Z,103065.66
2023-01-23T06:19:52.697Z,103063.31
2023-01-23T06:22:18.402Z,103063.13
2023-01-23T06:24:44.052Z,103067.78
2023-01-23T06:27:10.010Z,103066.91
2023-01-23T06:29:36.016Z,103075.66
2023-01-23T06:32:01.832Z,103082.84
2023-01-23T06:34:27.583Z,103077.34
2023-01-23T06:36:53.235Z,103084.75
2023-01-23T06:39:18.868Z,103093.66
2023-01-23T06:41:44.548Z,103092.81
2023-01-23T06:44:10.387Z,103091.72
2023-01-23T06:46:36.426Z,103092.81
2023-01-23T06:49:05.213Z,103098.97
2023-01-23T06:51:32.036Z,103103.63
2023-01-23T06:53:57.685Z,103109.16
2023-01-23T06:56:23.369Z,103112.75
2023-01-23T06:58:49.214Z,103109.53
2023-01-23T07:01:16.944Z,103111.84
2023-01-23T07:03:44.089Z,103114.19
2023-01-23T07:06:13.689Z,103128.41
2023-01-23T07:08:40.030Z,103121.81
2023-01-23T07:11:05.954Z,103131.16
2023-01-23T07:13:31.765Z,103129.66
2023-01-23T07:15:57.464Z,103127.78
2023-01-23T07:18:24.298Z,103138.34
2023-01-23T07:20:50.040Z,103133.91
2023-01-23T07:23:16.128Z,103137.31
2023-01-23T07:25:41.768Z,103140.06
2023-01-23T07:28:07.619Z,103135.38
2023-01-23T07:30:33.787Z,103139.84
2023-01-23T07:32:59.531Z,103153.63
2023-01-23T07:35:25.910Z,103144.50
2023-01-23T07:37:51.746Z,103147.88
2023-01-23T07:40:17.926Z,103157.22
2023-01-23T07:42:44.106Z,103154.47
2023-01-23T07:45:10.527Z,103162.56
2023-01-23T07:47:38.713Z,103165.13
2023-01-23T07:50:05.939Z,103172.50
2023-01-23T07:52:31.615Z,103172.69
2023-01-23T07:54:57.296Z,103163.38
2023-01-23T07:57:22.950Z,103162.31
2023-01-23T07:59:48.623Z,103169.72
2023-01-23T08:02:14.319Z,103164.22
2023-01-23T08:04:40.009Z,103165.25
2023-01-23T08:07:05.763Z,103169.50
2023-01-23T08:09:31.464Z,103174.19
2023-01-23T08:11:57.128Z,103165.91
2023-01-23T08:14:22.764Z,103168.00
2023-01-23T08:16:50.725Z,103161.66
2023-01-23T08:19:17.130Z,103159.09
2023-01-23T08:21:43.199Z,103155.28
2023-01-23T08:24:10.660Z,103151.69
2023-01-23T08:26:36.306Z,103159.31
2023-01-23T08:29:01.975Z,103151.69
2023-01-23T08:31:27.750Z,103154.81
2023-01-23T08:33:53.466Z,103164.59
2023-01-23T08:36:19.160Z,103162.06
2023-01-23T08:38:44.831Z,103171.16
2023-01-23T08:41:11.044Z,103175.63
2023-01-23T08:43:38.143Z,103187.47
2023-01-23T08:46:03.929Z,103182.56
2023-01-23T08:48:29.634Z,103181.91
2023-01-23T08:51:00.737Z,103186.56
2023-01-23T08:53:26.723Z,103184.91
2023-01-23T08:55:52.763Z,103189.56
2023-01-23T08:58:19.157Z,103186.81
2023-01-23T09:00:44.824Z,103190.41
2023-01-23T09:03:11.397Z,103190.41
2023-01-23T09:05:37.431Z,103188.09
2023-01-23T09:08:03.349Z,103194.03
2023-01-23T09:10:29.092Z,103193.41
2023-01-23T09:12:55.093Z,103190.00
2023-01-23T09:15:21.682Z,103190.00
2023-01-23T09:17:48.123Z,103197.44
2023-01-23T09:20:14.668Z,103198.28
2023-01-23T09:22:40.588Z,103200.19
2023-01-23T09:25:07.114Z,103202.09
2023-01-23T09:27:32.834Z,103197.44
2023-01-23T09:29:58.529Z,103195.28
2023-01-23T09:32:24.206Z,103206.13
2023-01-23T09:34:49.873Z,103213.28
2023-01-23T09:37:16.439Z,103206.72
2023-01-23T09:39:42.876Z,103200.56
2023-01-23T09:42:30.622Z,103199.94
2023-01-23T09:45:01.042Z,103202.69
2023-01-23T09:47:33.861Z,103210.31
2023-01-23T09:50:02.168Z,103213.06
2023-01-23T09:52:33.742Z,103209.47
2023-01-23T09:55:03.706Z,103212.66
2023-01-23T09:57:34.745Z,103211.81
2023-01-23T10:00:06.614Z,103216.91
2023-01-23T10:02:33.279Z,103213.06
2023-01-23T10:05:01.622Z,103210.91
2023-01-23T10:08:07.088Z,103214.97
2023-01-23T10:10:53.668Z,103211.59
2023-01-23T10:13:48.986Z,103217.94
2023-01-23T10:16:49.883Z,103215.19
2023-01-23T10:19:35.179Z,103207.75
2023-01-23T10:22:03.778Z,103214.34
2023-01-23T10:24:49.927Z,103218.78
2023-01-23T10:27:22.826Z,103217.75
2023-01-23T10:29:54.736Z,103212.44
2023-01-23T10:32:24.913Z,103200.34
2023-01-23T10:35:14.034Z,103200.13
2023-01-23T10:37:44.989Z,103206.72
2023-01-23T10:40:15.036Z,103205.28
2023-01-23T10:42:40.728Z,103207.81
2023-01-23T10:45:14.050Z,103208.22
2023-01-23T10:47:48.034Z,103206.91
2023-01-23T10:50:34.046Z,103216.91
2023-01-23T10:53:10.037Z,103210.31
2023-01-23T10:55:36.073Z,103213.91
2023-01-23T10:58:02.395Z,103210.50
2023-01-23T11:00:48.618Z,103209.47
2023-01-23T11:03:25.995Z,103215.81
2023-01-23T11:06:03.679Z,103210.31
2023-01-23T11:08:35.574Z,103208.41
2023-01-23T11:11:19.310Z,103215.59
2023-01-23T11:13:47.231Z,103204.56
2023-01-23T11:16:15.119Z,103202.66
2023-01-23T11:18:42.410Z,103201.81
2023-01-23T11:21:21.473Z,103199.88
2023-01-23T11:23:47.109Z,103204.56
2023-01-23T11:26:33.264Z,103198.84
2023-01-23T11:29:00.131Z,103197.13
2023-01-23T11:31:26.830Z,103200.72
2023-01-23T11:34:11.670Z,103204.38
2023-01-23T11:37:02.517Z,103203.50
2023-01-23T11:42:11.655Z,103187.81
2023-01-23T11:44:45.701Z,103186.94
2023-01-23T11:47:29.650Z,103185.91
2023-01-23T11:52:41.979Z,103193.31
2023-01-23T11:55:40.481Z,103187.81
2023-01-23T11:58:24.147Z,103195.00
2023-01-23T12:01:19.525Z,103190.56
2023-01-23T12:04:15.694Z,103186.09
2023-01-23T12:07:21.971Z,103195.00
2023-01-23T12:10:24.484Z,103193.31
2023-01-23T12:13:09.858Z,103205.22
2023-01-23T12:15:44.075Z,103188.84
2023-01-23T12:18:49.652Z,103187.81
2023-01-23T12:21:19.995Z,103192.47
2023-01-23T12:23:56.760Z,103194.38
2023-01-23T12:26:25.043Z,103191.63
2023-01-23T12:29:03.193Z,103180.81
2023-01-23T12:31:37.434Z,103186.31
2023-01-23T12:34:26.946Z,103188.00
2023-01-23T12:37:14.194Z,103185.25
2023-01-23T12:39:59.809Z,103188.25
2023-01-23T12:42:34.739Z,103183.56
2023-01-23T12:45:14.106Z,103193.75
2023-01-23T12:47:48.069Z,103192.91
2023-01-23T12:50:19.011Z,103195.69
2023-01-23T12:52:50.783Z,103189.31
2023-01-23T12:55:21.020Z,103190.34
2023-01-23T12:57:59.495Z,103193.75
2023-01-23T13:00:45.762Z,103182.94
2023-01-23T13:03:45.952Z,103184.84
2023-01-23T13:06:41.254Z,103188.44
2023-01-23T13:09:46.699Z,103184.84
2023-01-23T13:12:27.820Z,103189.53
2023-01-23T13:18:00.168Z,103196.28
2023-01-23T13:20:51.943Z,103199.81
2023-01-23T13:23:27.825Z,103192.16
2023-01-23T13:28:54.571Z,103197.38
2023-01-23T13:31:41.782Z,103200.66
2023-01-23T13:37:36.979Z,103187.84
2023-01-23T13:40:21.211Z,103194.00
2023-01-23T13:42:46.894Z,103196.53
2023-01-23T14:22:12.424Z,103218.09
2023-01-23T14:24:47.307Z,103213.66
2023-01-23T14:27:30.251Z,103213.03
2023-01-23T14:30:01.223Z,103214.94
2023-01-23T14:32:30.336Z,103216.63
2023-01-23T14:34:55.998Z,103214.94
2023-01-23T14:37:22.038Z,103223.22
2023-01-23T14:39:53.043Z,103224.91
2023-01-23T14:42:24.931Z,103221.28
2023-01-23T14:44:50.988Z,103215.59
2023-01-23T14:47:28.219Z,103216.38
2023-01-23T14:49:55.270Z,103220.44
2023-01-23T14:52:24.386Z,103225.09
2023-01-23T14:54:54.175Z,103224.47
2023-01-23T14:57:22.354Z,103223.63
2023-01-23T14:59:48.276Z,103226.38
2023-01-23T15:05:08.854Z,103224.47
2023-01-23T15:07:41.210Z,103228.06
2023-01-23T15:10:14.106Z,103231.47
2023-01-23T15:12:47.286Z,103230.16
2023-01-23T15:15:17.692Z,103231.00
2023-01-23T15:17:44.751Z,103232.09
2023-01-23T15:20:40.335Z,103238.25
2023-01-23T15:23:30.448Z,103236.53
2023-01-23T15:28:54.373Z,103231.88
2023-01-23T15:34:21.929Z,103230.81
2023-01-23T15:39:49.501Z,103229.31
2023-01-23T15:44:49.895Z,103237.59
2023-01-23T15:47:15.549Z,103225.50
2023-01-23T15:49:41.193Z,103229.13
2023-01-23T15:52:28.167Z,103227.41
2023-01-23T15:54:58.353Z,103218.09
2023-01-23T15:57:24.024Z,103224.66
2023-01-23T15:59:49.712Z,103224.66
2023-01-23T16:02:30.057Z,103226.13
2023-01-23T16:04:56.125Z,103227.16
2023-01-23T16:07:25.086Z,103219.53
2023-01-23T16:09:51.350Z,103219.00
2023-01-23T16:12:18.758Z,103203.28
2023-01-23T16:14:45.229Z,103206.00
2023-01-23T16:17:16.783Z,103195.28
2023-01-23T16:19:43.039Z,103189.94
2023-01-23T16:22:12.510Z,103188.41
2023-01-23T16:24:41.767Z,103188.84
2023-01-23T16:27:14.984Z,103183.09
2023-01-23T16:29:43.084Z,103183.94
2023-01-23T16:32:09.100Z,103188.41
2023-01-23T16:34:34.826Z,103185.63
2023-01-23T16:37:01.066Z,103190.09
2023-01-23T16:39:29.678Z,103193.69
2023-01-23T16:41:55.342Z,103193.69
2023-01-23T16:44:22.995Z,103198.97
2023-01-23T16:46:49.569Z,103203.66
2023-01-23T16:49:15.480Z,103202.56
2023-01-23T16:51:43.396Z,103211.69
2023-01-23T16:54:18.795Z,103209.81
2023-01-23T16:56:45.043Z,103216.16
2023-01-23T16:59:16.206Z,103216.16
2023-01-23T17:01:44.025Z,103214.25
2023-01-23T17:04:13.260Z,103211.50
2023-01-23T17:06:38.912Z,103211.50
2023-01-23T17:09:04.551Z,103220.63
2023-01-23T17:11:35.207Z,103218.69
2023-01-23T17:14:04.903Z,103222.53
2023-01-23T17:16:30.717Z,103229.97
2023-01-23T17:18:58.752Z,103228.88
2023-01-23T17:21:28.531Z,103242.69
2023-01-23T17:23:54.193Z,103243.53
2023-01-23T17:26:20.155Z,103238.84
2023-01-23T17:28:45.895Z,103236.94
2023-01-23T17:31:17.777Z,103237.78
2023-01-23T17:33:43.643Z,103227.81
2023-01-23T17:36:09.506Z,103233.34
2023-01-23T17:38:35.210Z,103229.50
2023-01-23T17:41:01.037Z,103225.06
2023-01-23T17:43:26.766Z,103217.63
2023-01-23T17:45:52.573Z,103222.28
2023-01-23T17:48:28.617Z,103226.13
2023-01-23T17:50:54.929Z,103216.16
2023-01-23T17:53:20.676Z,103221.69
2023-01-23T17:55:50.581Z,103210.41
2023-01-23T17:58:16.618Z,103215.31
2023-01-23T18:00:43.260Z,103218.94
2023-01-23T18:03:12.321Z,103223.81
2023-01-23T18:05:38.156Z,103228.47
2023-01-23T18:08:04.356Z,103222.97
2023-01-23T18:10:31.869Z,103223.81
2023-01-23T18:13:37.446Z,103217.44
2023-01-23T18:16:19.305Z,103217.44
2023-01-23T18:18:52.089Z,103226.56
2023-01-23T18:21:19.455Z,103226.78
2023-01-23T18:23:46.240Z,103234.00
2023-01-23T18:26:40.094Z,103221.28
2023-01-23T18:29:45.612Z,103222.97
2023-01-23T18:32:51.081Z,103230.41
2023-01-23T18:35:28.417Z,103229.56
2023-01-23T18:38:18.253Z,103220.44
2023-01-23T18:41:11.283Z,103229.56
2023-01-23T18:43:40.066Z,103225.09
2023-01-23T18:46:14.568Z,103230.63
2023-01-23T18:48:41.602Z,103227.03
2023-01-23T18:51:26.604Z,103232.53
2023-01-23T18:54:18.928Z,103228.72
2023-01-23T18:57:00.782Z,103234.44
2023-01-23T19:02:19.878Z,103234.44
2023-01-23T19:04:51.123Z,103238.25
2023-01-23T19:07:18.260Z,103241.88
2023-01-23T19:09:46.207Z,103240.81
2023-01-23T19:12:25.597Z,103250.97
2023-01-23T19:15:01.239Z,103244.63
2023-01-23T19:17:38.107Z,103246.53
2023-01-23T19:20:19.021Z,103248.22
2023-01-23T19:22:54.614Z,103253.75
2023-01-23T19:25:21.040Z,103262.03
2023-01-23T19:27:51.782Z,103257.56
2023-01-23T19:30:20.340Z,103261.41
2023-01-23T19:32:46.144Z,103260.34
2023-01-23T19:35:14.216Z,103267.78
2023-01-23T19:37:40.697Z,103267.78
2023-01-23T19:40:08.622Z,103265.84
2023-01-23T19:42:54.110Z,103270.53
2023-01-23T19:45:24.220Z,103270.75
2023-01-23T19:47:52.415Z,103275.19
2023-01-23T19:50:18.359Z,103280.72
2023-01-23T19:52:44.891Z,103277.97
2023-01-23T19:55:16.771Z,103277.97
2023-01-23T19:57:42.444Z,103280.94
2023-01-23T20:00:13.222Z,103285.41
2023-01-23T20:02:38.877Z,103289.22
2023-01-23T20:05:04.939Z,103287.31
2023-01-23T20:07:30.699Z,103278.19
2023-01-23T20:09:56.496Z,103288.16
2023-01-23T20:12:22.221Z,103294.75
2023-01-23T20:14:47.916Z,103299.38
2023-01-23T20:17:13.580Z,103305.78
2023-01-23T20:19:39.346Z,103296.44
2023-01-23T20:22:05.143Z,103291.97
2023-01-23T20:24:30.793Z,103298.53
2023-01-23T20:26:56.464Z,103293.88
2023-01-23T20:29:23.025Z,103306.81
2023-01-23T20:31:50.454Z,103305.78
2023-01-23T20:34:16.176Z,103304.06
2023-01-23T20:36:42.020Z,103304.91
2023-01-23T20:39:08.872Z,103305.13
2023-01-23T20:41:35.347Z,103297.94
2023-01-23T20:44:01.025Z,103299.63
2023-01-23T20:46:26.805Z,103299.63
2023-01-23T20:48:52.507Z,103297.94
2023-01-23T20:51:18.487Z,103300.47
2023-01-23T20:53:44.694Z,103297.94
2023-01-23T20:56:14.055Z,103301.53
2023-01-23T20:59:02.142Z,103299.84
2023-01-23T21:01:50.389Z,103300.69
2023-01-23T21:04:16.122Z,103299.84
2023-01-23T21:06:41.769Z,103296.25
2023-01-23T21:09:07.410Z,103293.47
2023-01-23T21:11:33.069Z,103291.56
2023-01-23T21:14:00.184Z,103287.97
2023-01-23T21:16:26.088Z,103290.72
2023-01-23T21:18:52.595Z,103292.66
2023-01-23T21:21:20.201Z,103286.06
2023-01-23T21:23:48.071Z,103283.50
2023-01-23T21:26:14.981Z,103285.22
2023-01-23T21:28:40.639Z,103277.13
2023-01-23T21:31:13.951Z,103277.97
2023-01-23T21:33:43.141Z,103280.72
2023-01-23T21:36:10.056Z,103285.41
2023-01-23T21:38:35.709Z,103277.13
2023-01-23T21:41:01.533Z,103282.66
2023-01-23T21:43:27.443Z,103277.13
2023-01-23T21:45:53.118Z,103277.13
2023-01-23T21:48:18.770Z,103279.03
2023-01-23T21:50:44.411Z,103285.41
2023-01-23T21:53:10.108Z,103281.81
2023-01-23T21:55:35.879Z,103284.56
2023-01-23T21:58:01.528Z,103280.97
2023-01-23T22:00:47.117Z,103280.97
2023-01-23T22:03:12.773Z,103280.13
2023-01-23T22:05:38.406Z,103283.72
2023-01-23T22:08:04.102Z,103282.03
2023-01-23T22:10:30.061Z,103285.63
2023-01-23T22:12:55.766Z,103282.88
2023-01-23T22:15:21.935Z,103276.50
2023-01-23T22:17:47.902Z,103273.75
2023-01-23T22:20:13.751Z,103271.00
2023-01-23T22:22:39.709Z,103277.34
2023-01-23T22:25:06.142Z,103271.00
2023-01-23T22:27:31.835Z,103275.69
2023-01-23T22:29:57.492Z,103275.69
2023-01-23T22:32:23.237Z,103270.34
2023-01-23T22:34:49.051Z,103272.06
2023-01-23T22:37:14.731Z,103280.34
2023-01-23T22:39:40.393Z,103281.19
2023-01-23T22:42:06.043Z,103278.63
2023-01-23T22:44:31.676Z,103279.47
2023-01-23T22:46:57.380Z,103282.22
2023-01-23T22:49:23.097Z,103284.16
2023-01-23T22:51:48.805Z,103275.03
2023-01-23T22:54:14.444Z,103266.75
2023-01-23T22:56:40.102Z,103271.44
2023-01-23T22:59:05.765Z,103274.19
2023-01-23T23:01:31.423Z,103276.94
2023-01-23T23:03:57.988Z,103280.53
2023-01-23T23:06:23.751Z,103276.09
2023-01-23T23:08:49.456Z,103270.59
2023-01-23T23:11:20.621Z,103280.78
2023-01-23T23:13:46.538Z,103287.13
2023-01-23T23:16:17.464Z,103283.53
2023-01-23T23:18:44.506Z,103279.69
2023-01-23T23:21:13.016Z,103278.84
2023-01-23T23:23:38.629Z,103278.00
2023-01-23T23:26:06.174Z,103271.84
2023-01-23T23:28:32.159Z,103278.00
2023-01-23T23:30:58.056Z,103280.78
2023-01-23T23:33:23.746Z,103278.00
2023-01-23T23:35:49.404Z,103269.09
2023-01-23T23:38:15.115Z,103270.81
2023-01-23T23:40:41.185Z,103271.84
2023-01-23T23:43:07.201Z,103270.16
2023-01-23T23:45:32.846Z,103271.84
2023-01-23T23:47:58.569Z,103275.69
2023-01-23T23:50:24.220Z,103265.50
2023-01-23T23:52:49.868Z,103276.53
2023-01-23T23:55:15.580Z,103275.69
2023-01-23T23:57:41.230Z,103275.69
